D/T METAR WX W/DIR W/SPE G/SPE TEMP DEWP
19/03/19 02:50 EGNT 190250Z 22005KT 9999 BKN025 06/05 Q1022 SW (220°) 5.8mph 6°C 5°C
19/03/19 01:50 EGNT 190150Z 21003KT 9999 BKN032 06/05 Q1022 SSW (210°) 3.5mph 6°C 5°C
19/03/19 01:20 EGNT 190120Z 20005KT 160V230 9999 BKN030 06/05 Q1022 SSW (200°) 5.8mph 6°C 5°C
19/03/19 00:20 EGNT 190020Z 20002KT 9999 BKN020 05/04 Q1021 SSW (200°) 2.3mph 5°C 4°C
18/03/19 23:50 EGNT 182350Z 25001KT 9999 BKN033 06/04 Q1021 WSW (250°) 1.2mph 6°C 4°C
18/03/19 23:20 EGNT 182320Z 29003KT 9999 BKN028 06/04 Q1021 WNW (290°) 3.5mph 6°C 4°C
18/03/19 22:50 EGNT 182250Z VRB01KT 9999 BKN028 06/04 Q1021 N (0°) 1.2mph 6°C 4°C
18/03/19 22:20 EGNT 182220Z 21002KT 9999 BKN027 07/04 Q1021 SSW (210°) 2.3mph 7°C 4°C
18/03/19 21:50 EGNT 182150Z 23004KT 9999 BKN024 07/04 Q1021 SW (230°) 4.6mph 7°C 4°C
18/03/19 21:20 EGNT 182120Z 21001KT 9999 FEW020 BKN035 07/04 Q1021 SSW (210°) 1.2mph 7°C 4°C
18/03/19 20:50 EGNT 182050Z 18002KT 9999 BKN032 06/04 Q1021 S (180°) 2.3mph 6°C 4°C
18/03/19 20:20 EGNT 182020Z 21001KT 9999 BKN034 07/04 Q1020 SSW (210°) 1.2mph 7°C 4°C
18/03/19 19:50 EGNT 181950Z 00000KT 9999 BKN034 07/04 Q1020 N (0°) 7°C 4°C
18/03/19 19:20 EGNT 181920Z VRB01KT 9999 BKN032 07/03 Q1020 N (0°) 1.2mph 7°C 3°C
18/03/19 18:50 EGNT 181850Z 30003KT 9999 BKN040 07/03 Q1020 WNW (300°) 3.5mph 7°C 3°C
18/03/19 18:20 EGNT 181820Z 31004KT 9999 BKN032 08/03 Q1019 NW (310°) 4.6mph 8°C 3°C
18/03/19 17:50 EGNT 181750Z 29004KT 9999 BKN032 08/03 Q1019 WNW (290°) 4.6mph 8°C 3°C
18/03/19 17:20 EGNT 181720Z 28006KT 9999 FEW027 BKN039 08/03 Q1019 W (280°) 6.9mph 8°C 3°C
18/03/19 16:20 EGNT 181620Z 27005KT 250V310 9999 FEW025 BKN040 09/03 Q1018 W (270°) 5.8mph 9°C 3°C
18/03/19 15:50 EGNT 181550Z 28007KT 9999 FEW030 SCT040 09/03 Q1018 W (280°) 8.1mph 9°C 3°C
18/03/19 14:50 EGNT 181450Z 24008KT 190V270 9999 FEW028 SCT045 10/03 Q1017 WSW (240°) 9.2mph 10°C 3°C
18/03/19 14:20 EGNT 181420Z 24011KT 9999 FEW028 SCT045 10/03 Q1017 WSW (240°) 12.7mph 10°C 3°C
18/03/19 13:50 EGNT 181350Z 31006KT 280V360 9999 SCT028 SCT049 09/03 Q1017 NW (310°) 6.9mph 9°C 3°C
18/03/19 13:20 EGNT 181320Z 26006KT 9999 FEW028 09/03 Q1017 W (260°) 6.9mph 9°C 3°C
18/03/19 12:20 EGNT 181220Z 26010KT 9999 FEW024 SCT046 09/01 Q1017 W (260°) 11.5mph 9°C 1°C
18/03/19 11:50 EGNT 181150Z 26008KT 220V280 9999 FEW024 SCT046 09/02 Q1017 W (260°) 9.2mph 9°C 2°C
18/03/19 11:20 EGNT 181120Z 27009KT 9999 FEW018 SCT033 08/03 Q1017 W (270°) 10.4mph 8°C 3°C
18/03/19 10:20 EGNT 181020Z 27010KT 9999 FEW012 08/03 Q1017 W (270°) 11.5mph 8°C 3°C
18/03/19 09:50 EGNT 180950Z 28006KT 9999 FEW015 07/03 Q1016 W (280°) 6.9mph 7°C 3°C
18/03/19 09:20 EGNT 180920Z 25007KT 210V280 9999 FEW020 06/03 Q1016 WSW (250°) 8.1mph 6°C 3°C
18/03/19 08:50 EGNT 180850Z 25006KT 9999 FEW045 05/02 Q1016 WSW (250°) 6.9mph 5°C 2°C
18/03/19 08:20 EGNT 180820Z VRB03KT CAVOK 04/01 Q1016 N (0°) 3.5mph 4°C 1°C
18/03/19 07:20 EGNT 180720Z 28007KT CAVOK 02/M00 Q1015 W (280°) 8.1mph 2°C 0°C
18/03/19 06:20 EGNT 180620Z 27007KT CAVOK 01/M01 Q1015 W (270°) 8.1mph 1°C -1°C
18/03/19 05:50 EGNT 180550Z 26007KT CAVOK 01/M01 Q1015 W (260°) 8.1mph 1°C -1°C
18/03/19 05:20 EGNT 180520Z 27008KT CAVOK 01/M01 Q1014 W (270°) 9.2mph 1°C -1°C
18/03/19 04:50 EGNT 180450Z 27007KT CAVOK 01/M01 Q1014 W (270°) 8.1mph 1°C -1°C
18/03/19 04:20 EGNT 180420Z 27007KT CAVOK 01/M01 Q1014 W (270°) 8.1mph 1°C -1°C
18/03/19 03:50 EGNT 180350Z VRB01KT CAVOK 00/M02 Q1014 N (0°) 1.2mph 0°C -2°C
18/03/19 03:20 EGNT 180320Z 27006KT CAVOK 01/M02 Q1013 W (270°) 6.9mph 1°C -2°C
18/03/19 02:50 EGNT 180250Z 26006KT CAVOK 00/M02 Q1013 W (260°) 6.9mph 0°C -2°C
18/03/19 01:50 EGNT 180150Z 27009KT CAVOK 01/M02 Q1013 W (270°) 10.4mph 1°C -2°C
18/03/19 01:20 EGNT 180120Z 27010KT CAVOK 01/M02 Q1012 W (270°) 11.5mph 1°C -2°C
18/03/19 00:50 EGNT 180050Z 28010KT CAVOK 02/M02 Q1012 W (280°) 11.5mph 2°C -2°C
18/03/19 00:20 EGNT 180020Z 27009KT 9999 FEW045 02/M02 Q1012 W (270°) 10.4mph 2°C -2°C
17/03/19 23:50 EGNT 172350Z 26006KT 9999 FEW048 02/M01 Q1011 W (260°) 6.9mph 2°C -1°C
17/03/19 23:20 EGNT 172320Z 26007KT CAVOK 01/M02 Q1011 W (260°) 8.1mph 1°C -2°C
17/03/19 22:50 EGNT 172250Z 26006KT CAVOK 01/M02 Q1011 W (260°) 6.9mph 1°C -2°C
17/03/19 22:20 EGNT 172220Z 27006KT CAVOK 01/M02 Q1010 W (270°) 6.9mph 1°C -2°C
17/03/19 21:50 EGNT 172150Z 27007KT CAVOK 02/M01 Q1010 W (270°) 8.1mph 2°C -1°C
17/03/19 21:20 EGNT 172120Z 28008KT CAVOK 03/M02 Q1009 W (280°) 9.2mph 3°C -2°C
17/03/19 20:50 EGNT 172050Z 29009KT 9999 FEW048 05/M01 Q1009 WNW (290°) 10.4mph 5°C -1°C
17/03/19 20:20 EGNT 172020Z 29008KT CAVOK 04/M01 Q1008 WNW (290°) 9.2mph 4°C -1°C
17/03/19 19:50 EGNT 171950Z 28007KT 9999 FEW020 03/M00 Q1008 W (280°) 8.1mph 3°C 0°C
17/03/19 19:20 EGNT 171920Z 28005KT 9999 FEW020 03/M00 Q1007 W (280°) 5.8mph 3°C 0°C
17/03/19 18:50 EGNT 171850Z 28005KT 9999 FEW020 04/00 Q1006 W (280°) 5.8mph 4°C 0°C
17/03/19 17:50 EGNT 171750Z 34011KT 9999 FEW020 06/02 Q1005 NNW (340°) 12.7mph 6°C 2°C
17/03/19 17:20 EGNT 171720Z 36016KT 9999 FEW020 06/01 Q1004 N (360°) 18.4mph 6°C 1°C
17/03/19 16:50 EGNT 171650Z 30011KT 9999 FEW020 08/03 Q1003 WNW (300°) 12.7mph 8°C 3°C
17/03/19 16:20 EGNT 171620Z 30009KT 9999 FEW020 07/03 Q1002 WNW (300°) 10.4mph 7°C 3°C
17/03/19 15:50 EGNT 171550Z 31008KT 9999 FEW020 07/04 Q1002 NW (310°) 9.2mph 7°C 4°C
17/03/19 15:20 EGNT 171520Z 27015KT 4000 SHRA FEW009 BKN020 06/04 Q1001 SHRA W (270°) 17.3mph 6°C 4°C
17/03/19 14:50 EGNT 171450Z 27018KT 8000 -SHRA FEW023 SCT042 06/04 Q1000 -SHRA W (270°) 20.7mph 6°C 4°C
17/03/19 13:50 EGNT 171350Z 28018KT 9999 FEW026 07/03 Q0999 W (280°) 20.7mph 7°C 3°C
17/03/19 13:20 EGNT 171320Z 27021KT 9999 FEW027 08/01 Q0998 W (270°) 24.2mph 8°C 1°C
17/03/19 12:50 EGNT 171250Z 27024KT 9999 FEW027 07/01 Q0998 W (270°) 27.6mph 7°C 1°C
17/03/19 12:20 EGNT 171220Z 28024KT 9999 FEW025 07/01 Q0997 W (280°) 27.6mph 7°C 1°C
17/03/19 11:50 EGNT 171150Z 27021KT 9999 FEW025 07/01 Q0997 W (270°) 24.2mph 7°C 1°C
17/03/19 11:20 EGNT 171120Z 27024KT 9999 FEW025 07/M00 Q0996 W (270°) 27.6mph 7°C 0°C
17/03/19 10:50 EGNT 171050Z 27021KT 9999 FEW020 06/M00 Q0996 W (270°) 24.2mph 6°C 0°C
17/03/19 10:20 EGNT 171020Z 27021KT 9999 FEW020 06/00 Q0996 W (270°) 24.2mph 6°C 0°C
17/03/19 09:50 EGNT 170950Z 27021KT 9999 FEW020 05/01 Q0996 W (270°) 24.2mph 5°C 1°C
17/03/19 09:20 EGNT 170920Z 27021KT 9999 FEW015 05/01 Q0995 W (270°) 24.2mph 5°C 1°C
17/03/19 08:50 EGNT 170850Z 26020KT 9999 FEW015 04/00 Q0995 W (260°) 23.0mph 4°C 0°C
17/03/19 08:20 EGNT 170820Z 26020KT 9999 FEW015 04/00 Q0995 W (260°) 23.0mph 4°C 0°C
17/03/19 07:50 EGNT 170750Z 26020KT 9999 FEW015 03/00 Q0994 W (260°) 23.0mph 3°C 0°C
17/03/19 07:20 EGNT 170720Z 27017KT 9999 FEW015 03/M00 Q0994 W (270°) 19.6mph 3°C 0°C
17/03/19 06:50 EGNT 170650Z 26018KT 9999 FEW018 02/M00 Q0993 W (260°) 20.7mph 2°C 0°C
17/03/19 06:20 EGNT 170620Z 27016KT 9999 FEW018 02/M00 Q0993 W (270°) 18.4mph 2°C 0°C
17/03/19 05:50 EGNT 170550Z 26016KT 9999 FEW018 02/M00 Q0992 W (260°) 18.4mph 2°C 0°C
17/03/19 05:20 EGNT 170520Z 27017KT 9999 FEW018 02/M00 Q0992 W (270°) 19.6mph 2°C 0°C
17/03/19 04:20 EGNT 170420Z 27014KT CAVOK 02/00 Q0991 W (270°) 16.1mph 2°C 0°C
17/03/19 03:50 EGNT 170350Z 26016KT CAVOK 02/00 Q0991 W (260°) 18.4mph 2°C 0°C
17/03/19 03:20 EGNT 170320Z 26015KT CAVOK 03/00 Q0991 W (260°) 17.3mph 3°C 0°C
17/03/19 02:50 EGNT 170250Z 27011KT CAVOK 02/00 Q0991 W (270°) 12.7mph 2°C 0°C
17/03/19 01:50 EGNT 170150Z 27013KT CAVOK 03/00 Q0990 W (270°) 15.0mph 3°C 0°C
17/03/19 01:20 EGNT 170120Z 27014KT CAVOK 03/00 Q0990 W (270°) 16.1mph 3°C 0°C
17/03/19 00:50 EGNT 170050Z 26016KT CAVOK 03/00 Q0989 W (260°) 18.4mph 3°C 0°C
17/03/19 00:20 EGNT 170020Z 27016KT CAVOK 03/00 Q0989 W (270°) 18.4mph 3°C 0°C
16/03/19 23:50 EGNT 162350Z 27015KT CAVOK 03/00 Q0989 W (270°) 17.3mph 3°C 0°C
16/03/19 23:20 EGNT 162320Z 27017KT CAVOK 03/00 Q0988 W (270°) 19.6mph 3°C 0°C
16/03/19 22:50 EGNT 162250Z 27018KT CAVOK 03/M00 Q0988 W (270°) 20.7mph 3°C 0°C
16/03/19 22:20 EGNT 162220Z 26018KT CAVOK 03/M00 Q0988 W (260°) 20.7mph 3°C 0°C
16/03/19 21:50 EGNT 162150Z 26017KT 9999 FEW030 03/M00 Q0987 W (260°) 19.6mph 3°C 0°C
16/03/19 21:20 EGNT 162120Z 27017KT 9999 FEW030 03/M00 Q0987 W (270°) 19.6mph 3°C 0°C
16/03/19 20:50 EGNT 162050Z 27019KT 9999 FEW022 03/00 Q0986 W (270°) 21.9mph 3°C 0°C
16/03/19 19:50 EGNT 161950Z 28016KT 9999 FEW020 03/00 Q0985 W (280°) 18.4mph 3°C 0°C
16/03/19 19:20 EGNT 161920Z 27022KT 9999 SCT020 04/00 Q0984 W (270°) 25.3mph 4°C 0°C
16/03/19 18:50 EGNT 161850Z 27025G35KT 9999 SCT016 05/01 Q0983 W (270°) 28.8mph 40.3mph 5°C 1°C
16/03/19 18:20 EGNT 161820Z 26024G34KT 9999 FEW015 SCT029 06/03 Q0982 W (260°) 27.6mph 39.1mph 6°C 3°C
16/03/19 17:50 EGNT 161750Z 25024G34KT 9999 FEW015 SCT023 06/03 Q0981 WSW (250°) 27.6mph 39.1mph 6°C 3°C
16/03/19 17:20 EGNT 161720Z 25023KT 9999 FEW015 SCT027 08/05 Q0981 WSW (250°) 26.5mph 8°C 5°C
16/03/19 16:50 EGNT 161650Z 25029G40KT 9999 -SHRA SCT020 BKN032 09/07 Q0980 -SHRA WSW (250°) 33.4mph 46.0mph 9°C 7°C
16/03/19 16:20 EGNT 161620Z 23011KT 9999 -SHRA SCT022 BKN035 11/08 Q0980 -SHRA SW (230°) 12.7mph 11°C 8°C
16/03/19 15:50 EGNT 161550Z 22018KT 180V250 9999 FEW021 SCT035 12/07 Q0980 SW (220°) 20.7mph 12°C 7°C
16/03/19 15:20 EGNT 161520Z 22018G33KT 190V260 9999 BKN024 12/08 Q0981 SW (220°) 20.7mph 38.0mph 12°C 8°C
16/03/19 14:50 EGNT 161450Z 23017G31KT 190V280 9999 FEW023 SCT034 12/08 Q0981 SW (230°) 19.6mph 35.7mph 12°C 8°C
16/03/19 14:20 EGNT 161420Z 23016G28KT 190V260 9999 FEW023 SCT034 12/08 Q0982 SW (230°) 18.4mph 32.2mph 12°C 8°C
16/03/19 13:50 EGNT 161350Z 22017G27KT 190V250 9999 FEW023 SCT034 12/08 Q0982 SW (220°) 19.6mph 31.1mph 12°C 8°C
16/03/19 13:20 EGNT 161320Z 22017G34KT 9999 FEW022 SCT038 11/08 Q0983 SW (220°) 19.6mph 39.1mph 11°C 8°C
16/03/19 12:50 EGNT 161250Z 22015G25KT 9999 -RA SCT044 11/08 Q0984 -RA SW (220°) 17.3mph 28.8mph 11°C 8°C
16/03/19 11:50 EGNT 161150Z 22016KT 9999 -RA SCT044 10/08 Q0985 -RA SW (220°) 18.4mph 10°C 8°C
16/03/19 11:20 EGNT 161120Z 22012KT 9999 -RA FEW010 BKN044 09/08 Q0985 -RA SW (220°) 13.8mph 9°C 8°C
16/03/19 10:50 EGNT 161050Z 19005KT 160V220 9000 4000NW -RA BKN039 07/06 Q0986 -RA S (190°) 5.8mph 7°C 6°C
16/03/19 10:20 EGNT 161020Z 15004KT 110V190 8000 3000W -RA FEW003 SCT042 04/04 Q0987 -RA SSE (150°) 4.6mph 4°C 4°C
16/03/19 09:50 EGNT 160950Z VRB03KT 7000 3000W -RA FEW002 BKN003 03/03 Q0988 -RA N (0°) 3.5mph 3°C 3°C
16/03/19 09:20 EGNT 160920Z VRB01KT 4500 -RA BR OVC002 02/02 Q0989 -RA BR N (0°) 1.2mph 2°C 2°C
16/03/19 08:50 EGNT 160850Z 10004KT 2500 -RA BR OVC002 01/01 Q0990 -RA BR E (100°) 4.6mph 1°C 1°C
16/03/19 08:20 EGNT 160820Z VRB02KT 2500 -RA FEW002 BKN003 01/01 Q0991 -RA N (0°) 2.3mph 1°C 1°C
16/03/19 07:50 EGNT 160750Z VRB03KT 3500 -RA BKN003 01/00 Q0992 -RA N (0°) 3.5mph 1°C 0°C
16/03/19 07:20 EGNT 160720Z 11005KT 070V140 3500 -RASN BKN003 00/00 Q0993 -RA -SN ESE (110°) 5.8mph 0°C 0°C
16/03/19 06:50 EGNT 160650Z 11005KT 3000 -RASN BKN003 00/00 Q0994 -RA -SN ESE (110°) 5.8mph 0°C 0°C
16/03/19 06:20 EGNT 160620Z 13004KT 4000 -RASN BKN004 01/00 Q0995 -RA -SN SE (130°) 4.6mph 1°C 0°C
16/03/19 05:50 EGNT 160550Z 15005KT 090V200 4500 -RA BKN007 02/01 Q0996 -RA SSE (150°) 5.8mph 2°C 1°C
16/03/19 05:20 EGNT 160520Z 16004KT 110V190 8000 -RA BKN010 02/02 Q0997 -RA SSE (160°) 4.6mph 2°C 2°C
16/03/19 04:50 EGNT 160450Z 17006KT 140V210 8000 -RA BKN016 03/02 Q0997 -RA S (170°) 6.9mph 3°C 2°C
16/03/19 03:50 EGNT 160350Z 19005KT 150V230 9999 -RA BKN016 04/02 Q0999 -RA S (190°) 5.8mph 4°C 2°C
16/03/19 03:20 EGNT 160320Z 20003KT 9999 -RA SCT027 05/02 Q0999 -RA SSW (200°) 3.5mph 5°C 2°C
16/03/19 02:50 EGNT 160250Z VRB02KT 9999 FEW020 05/01 Q1000 N (0°) 2.3mph 5°C 1°C
16/03/19 02:20 EGNT 160220Z VRB03KT 9999 FEW020 05/01 Q1001 N (0°) 3.5mph 5°C 1°C
16/03/19 01:20 EGNT 160120Z VRB03KT 9999 FEW020 05/02 Q1002 N (0°) 3.5mph 5°C 2°C
16/03/19 00:50 EGNT 160050Z 22006KT 9999 FEW020 05/01 Q1002 SW (220°) 6.9mph 5°C 1°C
16/03/19 00:20 EGNT 160020Z 21004KT 180V250 9999 FEW030 05/01 Q1002 SSW (210°) 4.6mph 5°C 1°C
15/03/19 23:50 EGNT 152350Z 21004KT 9999 FEW040 04/00 Q1003 SSW (210°) 4.6mph 4°C 0°C
15/03/19 22:50 EGNT 152250Z 24007KT 200V260 9999 FEW040 04/M00 Q1003 WSW (240°) 8.1mph 4°C 0°C
15/03/19 22:20 EGNT 152220Z 27013KT 9999 FEW030 04/00 Q1002 W (270°) 15.0mph 4°C 0°C
15/03/19 21:50 EGNT 152150Z 26014KT 9999 FEW030 04/M00 Q1002 W (260°) 16.1mph 4°C 0°C
15/03/19 21:20 EGNT 152120Z 27014KT 9999 FEW030 04/00 Q1002 W (270°) 16.1mph 4°C 0°C
15/03/19 20:50 EGNT 152050Z 28017KT 9999 FEW030 04/M00 Q1002 W (280°) 19.6mph 4°C 0°C
15/03/19 20:20 EGNT 152020Z 27018KT 9999 FEW030 04/00 Q1002 W (270°) 20.7mph 4°C 0°C
15/03/19 19:50 EGNT 151950Z 26014KT 220V280 9999 FEW030 04/M00 Q1002 W (260°) 16.1mph 4°C 0°C
15/03/19 19:20 EGNT 151920Z 27016KT 9999 FEW030 05/M00 Q1002 W (270°) 18.4mph 5°C 0°C
15/03/19 18:50 EGNT 151850Z 27020KT 9999 FEW030 05/M01 Q1002 W (270°) 23.0mph 5°C -1°C
15/03/19 17:50 EGNT 151750Z 28014G24KT 250V320 9999 FEW032 06/01 Q1001 W (280°) 16.1mph 27.6mph 6°C 1°C